sensor_id;sensor_type;location;lat;lon;timestamp;P1;durP1;ratioP1;P2;durP2;ratioP2
36789;SDS011;22740;52.182;8.780;2023-04-21T00:05:21;24.30;;;15.95;;
36789;SDS011;22740;52.182;8.780;2023-04-21T00:11:23;27.55;;;17.20;;
36789;SDS011;22740;52.182;8.780;2023-04-21T00:17:25;27.60;;;17.63;;
36789;SDS011;22740;52.182;8.780;2023-04-21T00:23:28;27.30;;;17.58;;
36789;SDS011;22740;52.182;8.780;2023-04-21T00:29:30;27.40;;;17.70;;
36789;SDS011;22740;52.182;8.780;2023-04-21T00:35:32;29.05;;;18.33;;
36789;SDS011;22740;52.182;8.780;2023-04-21T00:41:34;30.35;;;18.63;;
36789;SDS011;22740;52.182;8.780;2023-04-21T00:47:37;31.23;;;19.83;;
36789;SDS011;22740;52.182;8.780;2023-04-21T00:53:38;32.72;;;20.40;;
36789;SDS011;22740;52.182;8.780;2023-04-21T00:59:41;33.63;;;21.27;;
36789;SDS011;22740;52.182;8.780;2023-04-21T01:05:43;31.52;;;21.15;;
36789;SDS011;22740;52.182;8.780;2023-04-21T01:18:24;31.85;;;20.85;;
36789;SDS011;22740;52.182;8.780;2023-04-21T01:30:37;33.00;;;20.95;;
36789;SDS011;22740;52.182;8.780;2023-04-21T01:36:39;34.85;;;21.77;;
36789;SDS011;22740;52.182;8.780;2023-04-21T01:42:43;29.67;;;20.70;;
36789;SDS011;22740;52.182;8.780;2023-04-21T01:48:47;31.67;;;21.52;;
36789;SDS011;22740;52.182;8.780;2023-04-21T01:54:48;32.72;;;22.70;;
36789;SDS011;22740;52.182;8.780;2023-04-21T02:00:50;34.22;;;22.48;;
36789;SDS011;22740;52.182;8.780;2023-04-21T02:06:52;34.00;;;21.80;;
36789;SDS011;22740;52.182;8.780;2023-04-21T02:12:54;30.27;;;20.35;;
36789;SDS011;22740;52.182;8.780;2023-04-21T02:18:56;29.20;;;19.63;;
36789;SDS011;22740;52.182;8.780;2023-04-21T02:24:58;28.13;;;18.73;;
36789;SDS011;22740;52.182;8.780;2023-04-21T02:31:00;28.00;;;19.48;;
36789;SDS011;22740;52.182;8.780;2023-04-21T02:37:02;27.17;;;18.80;;
36789;SDS011;22740;52.182;8.780;2023-04-21T02:43:03;26.92;;;18.77;;
36789;SDS011;22740;52.182;8.780;2023-04-21T02:49:05;25.73;;;18.25;;
36789;SDS011;22740;52.182;8.780;2023-04-21T02:55:07;27.05;;;17.23;;
36789;SDS011;22740;52.182;8.780;2023-04-21T03:01:09;26.52;;;17.42;;
36789;SDS011;22740;52.182;8.780;2023-04-21T03:07:11;23.73;;;15.68;;
36789;SDS011;22740;52.182;8.780;2023-04-21T03:13:13;25.77;;;17.27;;
36789;SDS011;22740;52.182;8.780;2023-04-21T03:19:16;23.30;;;17.00;;
36789;SDS011;22740;52.182;8.780;2023-04-21T03:25:18;24.85;;;17.23;;
36789;SDS011;22740;52.182;8.780;2023-04-21T03:31:20;27.48;;;17.55;;
36789;SDS011;22740;52.182;8.780;2023-04-21T03:37:22;24.17;;;17.65;;
36789;SDS011;22740;52.182;8.780;2023-04-21T03:43:24;27.15;;;17.33;;
36789;SDS011;22740;52.182;8.780;2023-04-21T03:49:26;27.15;;;16.55;;
36789;SDS011;22740;52.182;8.780;2023-04-21T03:55:27;28.50;;;16.55;;
36789;SDS011;22740;52.182;8.780;2023-04-21T04:01:29;24.92;;;16.13;;
36789;SDS011;22740;52.182;8.780;2023-04-21T04:07:32;22.17;;;16.45;;
36789;SDS011;22740;52.182;8.780;2023-04-21T04:13:34;26.63;;;16.85;;
36789;SDS011;22740;52.182;8.780;2023-04-21T04:19:35;26.88;;;17.35;;
36789;SDS011;22740;52.182;8.780;2023-04-21T04:25:37;26.92;;;16.58;;
36789;SDS011;22740;52.182;8.780;2023-04-21T04:31:40;25.40;;;16.38;;
36789;SDS011;22740;52.182;8.780;2023-04-21T04:37:42;27.85;;;16.52;;
36789;SDS011;22740;52.182;8.780;2023-04-21T04:43:44;26.25;;;17.38;;
36789;SDS011;22740;52.182;8.780;2023-04-21T04:49:46;24.52;;;15.73;;
36789;SDS011;22740;52.182;8.780;2023-04-21T04:55:48;24.17;;;14.10;;
36789;SDS011;22740;52.182;8.780;2023-04-21T05:01:50;20.40;;;13.52;;
36789;SDS011;22740;52.182;8.780;2023-04-21T05:07:52;21.88;;;13.60;;
36789;SDS011;22740;52.182;8.780;2023-04-21T05:13:54;22.40;;;13.65;;
36789;SDS011;22740;52.182;8.780;2023-04-21T05:19:56;21.85;;;13.20;;
36789;SDS011;22740;52.182;8.780;2023-04-21T05:25:58;24.33;;;11.85;;
36789;SDS011;22740;52.182;8.780;2023-04-21T05:32:04;24.98;;;12.15;;
36789;SDS011;22740;52.182;8.780;2023-04-21T05:38:06;20.50;;;11.75;;
36789;SDS011;22740;52.182;8.780;2023-04-21T05:44:08;18.98;;;11.13;;
36789;SDS011;22740;52.182;8.780;2023-04-21T05:50:10;17.15;;;10.73;;
36789;SDS011;22740;52.182;8.780;2023-04-21T05:56:11;13.68;;;10.88;;
36789;SDS011;22740;52.182;8.780;2023-04-21T06:02:14;21.02;;;11.27;;
36789;SDS011;22740;52.182;8.780;2023-04-21T06:08:16;21.60;;;12.05;;
36789;SDS011;22740;52.182;8.780;2023-04-21T06:14:17;22.42;;;10.55;;
36789;SDS011;22740;52.182;8.780;2023-04-21T06:20:20;23.85;;;11.10;;
36789;SDS011;22740;52.182;8.780;2023-04-21T06:26:21;16.67;;;10.85;;
36789;SDS011;22740;52.182;8.780;2023-04-21T06:32:23;19.05;;;10.90;;
36789;SDS011;22740;52.182;8.780;2023-04-21T06:38:25;18.08;;;10.77;;
36789;SDS011;22740;52.182;8.780;2023-04-21T06:44:27;18.50;;;11.00;;
36789;SDS011;22740;52.182;8.780;2023-04-21T06:50:29;18.52;;;10.75;;
36789;SDS011;22740;52.182;8.780;2023-04-21T06:56:31;16.63;;;10.60;;
36789;SDS011;22740;52.182;8.780;2023-04-21T07:02:33;19.30;;;10.35;;
36789;SDS011;22740;52.182;8.780;2023-04-21T07:08:35;20.60;;;10.05;;
36789;SDS011;22740;52.182;8.780;2023-04-21T07:14:37;20.55;;;9.68;;
36789;SDS011;22740;52.182;8.780;2023-04-21T07:20:39;18.48;;;9.15;;
36789;SDS011;22740;52.182;8.780;2023-04-21T07:26:41;16.95;;;9.77;;
36789;SDS011;22740;52.182;8.780;2023-04-21T07:32:43;14.02;;;9.63;;
36789;SDS011;22740;52.182;8.780;2023-04-21T07:38:45;14.52;;;9.52;;
36789;SDS011;22740;52.182;8.780;2023-04-21T07:44:47;17.70;;;9.40;;
36789;SDS011;22740;52.182;8.780;2023-04-21T07:50:49;16.50;;;8.80;;
36789;SDS011;22740;52.182;8.780;2023-04-21T07:56:51;18.35;;;8.55;;
36789;SDS011;22740;52.182;8.780;2023-04-21T08:02:52;17.20;;;8.68;;
36789;SDS011;22740;52.182;8.780;2023-04-21T08:08:54;16.17;;;8.50;;
36789;SDS011;22740;52.182;8.780;2023-04-21T08:14:56;14.63;;;8.48;;
36789;SDS011;22740;52.182;8.780;2023-04-21T08:20:58;11.52;;;7.28;;
36789;SDS011;22740;52.182;8.780;2023-04-21T08:27:00;13.13;;;7.47;;
36789;SDS011;22740;52.182;8.780;2023-04-21T08:33:02;15.60;;;8.32;;
36789;SDS011;22740;52.182;8.780;2023-04-21T08:39:04;18.92;;;8.88;;
36789;SDS011;22740;52.182;8.780;2023-04-21T08:45:06;14.35;;;7.72;;
36789;SDS011;22740;52.182;8.780;2023-04-21T08:51:09;13.93;;;7.53;;
36789;SDS011;22740;52.182;8.780;2023-04-21T08:57:11;10.68;;;7.25;;
36789;SDS011;22740;52.182;8.780;2023-04-21T09:03:23;14.60;;;7.30;;
36789;SDS011;22740;52.182;8.780;2023-04-21T09:09:27;15.13;;;7.50;;
36789;SDS011;22740;52.182;8.780;2023-04-21T09:15:29;13.25;;;6.97;;
36789;SDS011;22740;52.182;8.780;2023-04-21T09:21:39;13.10;;;7.05;;
36789;SDS011;22740;52.182;8.780;2023-04-21T09:27:44;12.23;;;7.03;;
36789;SDS011;22740;52.182;8.780;2023-04-21T09:33:56;10.70;;;6.78;;
36789;SDS011;22740;52.182;8.780;2023-04-21T09:40:01;13.75;;;6.85;;
36789;SDS011;22740;52.182;8.780;2023-04-21T09:46:05;10.63;;;6.63;;
36789;SDS011;22740;52.182;8.780;2023-04-21T09:52:07;15.25;;;6.07;;
36789;SDS011;22740;52.182;8.780;2023-04-21T09:58:19;14.93;;;6.53;;
36789;SDS011;22740;52.182;8.780;2023-04-21T10:04:24;14.35;;;5.97;;
36789;SDS011;22740;52.182;8.780;2023-04-21T10:10:29;13.45;;;6.00;;
36789;SDS011;22740;52.182;8.780;2023-04-21T10:16:32;16.92;;;6.00;;
36789;SDS011;22740;52.182;8.780;2023-04-21T10:22:37;11.60;;;5.63;;
36789;SDS011;22740;52.182;8.780;2023-04-21T10:34:46;8.82;;;4.47;;
36789;SDS011;22740;52.182;8.780;2023-04-21T10:40:49;13.70;;;5.00;;
36789;SDS011;22740;52.182;8.780;2023-04-21T10:46:52;10.93;;;4.63;;
36789;SDS011;22740;52.182;8.780;2023-04-21T10:52:55;9.45;;;4.18;;
36789;SDS011;22740;52.182;8.780;2023-04-21T10:58:59;12.13;;;4.03;;
36789;SDS011;22740;52.182;8.780;2023-04-21T11:05:01;8.77;;;4.05;;
36789;SDS011;22740;52.182;8.780;2023-04-21T11:11:03;7.38;;;3.50;;
36789;SDS011;22740;52.182;8.780;2023-04-21T11:17:15;10.68;;;3.47;;
36789;SDS011;22740;52.182;8.780;2023-04-21T11:23:19;9.32;;;3.33;;
36789;SDS011;22740;52.182;8.780;2023-04-21T11:29:21;7.38;;;3.42;;
36789;SDS011;22740;52.182;8.780;2023-04-21T11:35:23;11.90;;;3.28;;
36789;SDS011;22740;52.182;8.780;2023-04-21T11:41:24;8.50;;;3.15;;
36789;SDS011;22740;52.182;8.780;2023-04-21T11:47:27;6.75;;;2.88;;
36789;SDS011;22740;52.182;8.780;2023-04-21T11:53:29;11.63;;;2.72;;
36789;SDS011;22740;52.182;8.780;2023-04-21T11:59:31;12.85;;;2.72;;
36789;SDS011;22740;52.182;8.780;2023-04-21T12:05:33;7.65;;;2.53;;
36789;SDS011;22740;52.182;8.780;2023-04-21T12:11:36;9.23;;;2.50;;
36789;SDS011;22740;52.182;8.780;2023-04-21T12:17:38;8.82;;;2.35;;
36789;SDS011;22740;52.182;8.780;2023-04-21T12:23:44;10.52;;;2.50;;
36789;SDS011;22740;52.182;8.780;2023-04-21T12:29:46;8.13;;;2.47;;
36789;SDS011;22740;52.182;8.780;2023-04-21T12:35:48;6.47;;;2.45;;
36789;SDS011;22740;52.182;8.780;2023-04-21T12:41:50;8.18;;;2.40;;
36789;SDS011;22740;52.182;8.780;2023-04-21T12:47:52;10.25;;;2.50;;
36789;SDS011;22740;52.182;8.780;2023-04-21T12:53:55;6.80;;;2.50;;
36789;SDS011;22740;52.182;8.780;2023-04-21T12:59:57;8.10;;;2.50;;
36789;SDS011;22740;52.182;8.780;2023-04-21T13:05:58;7.85;;;2.65;;
36789;SDS011;22740;52.182;8.780;2023-04-21T13:12:00;8.80;;;3.10;;
36789;SDS011;22740;52.182;8.780;2023-04-21T13:18:02;12.63;;;2.70;;
36789;SDS011;22740;52.182;8.780;2023-04-21T13:24:04;11.63;;;2.67;;
36789;SDS011;22740;52.182;8.780;2023-04-21T13:30:07;6.20;;;2.38;;
36789;SDS011;22740;52.182;8.780;2023-04-21T13:36:11;11.00;;;3.00;;
36789;SDS011;22740;52.182;8.780;2023-04-21T13:42:13;10.95;;;2.88;;
36789;SDS011;22740;52.182;8.780;2023-04-21T13:48:15;9.07;;;2.60;;
36789;SDS011;22740;52.182;8.780;2023-04-21T13:54:17;8.82;;;2.40;;
36789;SDS011;22740;52.182;8.780;2023-04-21T14:00:18;9.40;;;2.40;;
36789;SDS011;22740;52.182;8.780;2023-04-21T14:06:21;7.97;;;2.75;;
36789;SDS011;22740;52.182;8.780;2023-04-21T14:12:23;8.52;;;2.95;;
36789;SDS011;22740;52.182;8.780;2023-04-21T14:24:28;11.23;;;2.63;;
36789;SDS011;22740;52.182;8.780;2023-04-21T14:30:32;7.43;;;2.67;;
36789;SDS011;22740;52.182;8.780;2023-04-21T14:36:36;6.22;;;2.08;;
36789;SDS011;22740;52.182;8.780;2023-04-21T14:42:38;11.48;;;2.65;;
36789;SDS011;22740;52.182;8.780;2023-04-21T14:48:41;7.53;;;2.72;;
36789;SDS011;22740;52.182;8.780;2023-04-21T14:54:44;8.53;;;2.73;;
36789;SDS011;22740;52.182;8.780;2023-04-21T15:00:46;6.53;;;2.50;;
36789;SDS011;22740;52.182;8.780;2023-04-21T15:06:48;7.93;;;2.65;;
36789;SDS011;22740;52.182;8.780;2023-04-21T15:12:52;7.05;;;2.42;;
36789;SDS011;22740;52.182;8.780;2023-04-21T15:18:54;9.68;;;2.17;;
36789;SDS011;22740;52.182;8.780;2023-04-21T15:24:56;9.57;;;2.22;;
36789;SDS011;22740;52.182;8.780;2023-04-21T15:30:58;5.28;;;1.88;;
36789;SDS011;22740;52.182;8.780;2023-04-21T15:37:00;9.68;;;2.22;;
36789;SDS011;22740;52.182;8.780;2023-04-21T15:43:02;7.40;;;2.28;;
36789;SDS011;22740;52.182;8.780;2023-04-21T15:49:04;6.90;;;2.33;;
36789;SDS011;22740;52.182;8.780;2023-04-21T15:55:06;9.30;;;2.22;;
36789;SDS011;22740;52.182;8.780;2023-04-21T16:01:08;5.47;;;2.08;;
36789;SDS011;22740;52.182;8.780;2023-04-21T16:07:11;13.05;;;7.40;;
36789;SDS011;22740;52.182;8.780;2023-04-21T16:13:13;6.30;;;2.20;;
36789;SDS011;22740;52.182;8.780;2023-04-21T16:19:15;10.27;;;5.10;;
36789;SDS011;22740;52.182;8.780;2023-04-21T16:25:17;7.50;;;2.20;;
36789;SDS011;22740;52.182;8.780;2023-04-21T16:31:20;8.03;;;2.37;;
36789;SDS011;22740;52.182;8.780;2023-04-21T16:37:22;9.70;;;2.80;;
36789;SDS011;22740;52.182;8.780;2023-04-21T16:43:24;7.60;;;2.17;;
36789;SDS011;22740;52.182;8.780;2023-04-21T16:49:26;5.93;;;2.25;;
36789;SDS011;22740;52.182;8.780;2023-04-21T16:55:30;4.88;;;2.53;;
36789;SDS011;22740;52.182;8.780;2023-04-21T17:01:32;7.45;;;2.45;;
36789;SDS011;22740;52.182;8.780;2023-04-21T17:07:34;7.30;;;2.40;;
36789;SDS011;22740;52.182;8.780;2023-04-21T17:13:36;8.57;;;2.50;;
36789;SDS011;22740;52.182;8.780;2023-04-21T17:19:39;5.70;;;2.38;;
36789;SDS011;22740;52.182;8.780;2023-04-21T17:25:41;4.80;;;2.10;;
36789;SDS011;22740;52.182;8.780;2023-04-21T17:31:43;5.88;;;2.38;;
36789;SDS011;22740;52.182;8.780;2023-04-21T17:37:45;7.18;;;2.63;;
36789;SDS011;22740;52.182;8.780;2023-04-21T17:43:47;5.78;;;2.33;;
36789;SDS011;22740;52.182;8.780;2023-04-21T17:49:49;5.63;;;2.55;;
36789;SDS011;22740;52.182;8.780;2023-04-21T17:55:51;10.20;;;2.53;;
36789;SDS011;22740;52.182;8.780;2023-04-21T18:01:53;5.90;;;2.65;;
36789;SDS011;22740;52.182;8.780;2023-04-21T18:07:58;13.73;;;2.72;;
36789;SDS011;22740;52.182;8.780;2023-04-21T18:14:00;8.40;;;3.03;;
36789;SDS011;22740;52.182;8.780;2023-04-21T18:20:03;7.43;;;2.78;;
36789;SDS011;22740;52.182;8.780;2023-04-21T18:26:05;6.40;;;2.92;;
36789;SDS011;22740;52.182;8.780;2023-04-21T18:32:08;7.10;;;2.55;;
36789;SDS011;22740;52.182;8.780;2023-04-21T18:38:10;10.75;;;2.65;;
36789;SDS011;22740;52.182;8.780;2023-04-21T18:44:14;6.93;;;2.43;;
36789;SDS011;22740;52.182;8.780;2023-04-21T18:50:16;6.40;;;2.87;;
36789;SDS011;22740;52.182;8.780;2023-04-21T18:56:19;5.53;;;2.70;;
36789;SDS011;22740;52.182;8.780;2023-04-21T19:02:21;8.20;;;2.70;;
36789;SDS011;22740;52.182;8.780;2023-04-21T19:08:23;5.93;;;2.83;;
36789;SDS011;22740;52.182;8.780;2023-04-21T19:14:42;7.95;;;2.90;;
36789;SDS011;22740;52.182;8.780;2023-04-21T19:20:48;7.63;;;2.97;;
36789;SDS011;22740;52.182;8.780;2023-04-21T19:26:50;6.53;;;2.63;;
36789;SDS011;22740;52.182;8.780;2023-04-21T19:32:52;9.85;;;2.80;;
36789;SDS011;22740;52.182;8.780;2023-04-21T19:38:55;6.55;;;2.50;;
36789;SDS011;22740;52.182;8.780;2023-04-21T19:44:57;5.50;;;2.80;;
36789;SDS011;22740;52.182;8.780;2023-04-21T19:50:59;7.22;;;2.63;;
36789;SDS011;22740;52.182;8.780;2023-04-21T19:57:01;5.30;;;2.60;;
36789;SDS011;22740;52.182;8.780;2023-04-21T20:03:03;15.48;;;3.08;;
36789;SDS011;22740;52.182;8.780;2023-04-21T20:09:06;7.80;;;2.53;;
36789;SDS011;22740;52.182;8.780;2023-04-21T20:15:10;8.25;;;3.35;;
36789;SDS011;22740;52.182;8.780;2023-04-21T20:21:13;7.80;;;2.58;;
36789;SDS011;22740;52.182;8.780;2023-04-21T20:27:14;8.57;;;2.55;;
36789;SDS011;22740;52.182;8.780;2023-04-21T20:33:16;6.47;;;2.88;;
36789;SDS011;22740;52.182;8.780;2023-04-21T20:39:18;7.47;;;2.60;;
36789;SDS011;22740;52.182;8.780;2023-04-21T20:45:21;4.80;;;2.47;;
36789;SDS011;22740;52.182;8.780;2023-04-21T20:51:23;5.55;;;2.40;;
36789;SDS011;22740;52.182;8.780;2023-04-21T20:57:26;6.75;;;2.65;;
36789;SDS011;22740;52.182;8.780;2023-04-21T21:03:28;8.43;;;3.05;;
36789;SDS011;22740;52.182;8.780;2023-04-21T21:09:31;11.23;;;2.80;;
36789;SDS011;22740;52.182;8.780;2023-04-21T21:15:33;9.38;;;3.05;;
36789;SDS011;22740;52.182;8.780;2023-04-21T21:21:35;6.95;;;2.58;;
36789;SDS011;22740;52.182;8.780;2023-04-21T21:27:37;7.78;;;2.60;;
36789;SDS011;22740;52.182;8.780;2023-04-21T21:33:38;10.38;;;2.60;;
36789;SDS011;22740;52.182;8.780;2023-04-21T21:39:40;9.15;;;3.17;;
36789;SDS011;22740;52.182;8.780;2023-04-21T21:45:42;7.75;;;2.60;;
36789;SDS011;22740;52.182;8.780;2023-04-21T21:51:44;6.28;;;2.55;;
36789;SDS011;22740;52.182;8.780;2023-04-21T21:57:46;7.60;;;2.90;;
36789;SDS011;22740;52.182;8.780;2023-04-21T22:03:48;9.40;;;2.80;;
36789;SDS011;22740;52.182;8.780;2023-04-21T22:09:50;8.80;;;2.75;;
36789;SDS011;22740;52.182;8.780;2023-04-21T22:15:52;7.20;;;2.90;;
36789;SDS011;22740;52.182;8.780;2023-04-21T22:21:54;10.95;;;2.50;;
36789;SDS011;22740;52.182;8.780;2023-04-21T22:27:56;7.72;;;3.00;;
36789;SDS011;22740;52.182;8.780;2023-04-21T22:33:58;7.63;;;2.67;;
36789;SDS011;22740;52.182;8.780;2023-04-21T22:40:00;10.43;;;2.90;;
36789;SDS011;22740;52.182;8.780;2023-04-21T22:46:02;8.30;;;2.53;;
36789;SDS011;22740;52.182;8.780;2023-04-21T22:52:04;12.65;;;3.22;;
36789;SDS011;22740;52.182;8.780;2023-04-21T22:58:06;10.50;;;3.00;;
36789;SDS011;22740;52.182;8.780;2023-04-21T23:04:07;6.82;;;2.78;;
36789;SDS011;22740;52.182;8.780;2023-04-21T23:10:10;10.13;;;2.97;;
36789;SDS011;22740;52.182;8.780;2023-04-21T23:16:11;9.32;;;2.97;;
36789;SDS011;22740;52.182;8.780;2023-04-21T23:22:13;6.55;;;2.70;;
36789;SDS011;22740;52.182;8.780;2023-04-21T23:28:15;6.57;;;2.55;;
36789;SDS011;22740;52.182;8.780;2023-04-21T23:34:17;8.18;;;3.03;;
36789;SDS011;22740;52.182;8.780;2023-04-21T23:40:19;6.65;;;3.15;;
36789;SDS011;22740;52.182;8.780;2023-04-21T23:46:21;8.32;;;3.03;;
36789;SDS011;22740;52.182;8.780;2023-04-21T23:52:23;8.50;;;2.75;;
36789;SDS011;22740;52.182;8.780;2023-04-21T23:58:25;5.15;;;2.92;;
